Garfield County Regional Airport
KRIL : now visible

Airfield :











YOU CAN JOIN US ON...

 
LOGIN :

Register | Disclaimer

   EN    FR    IT 

 









Legend :    VFR   Marginal VFR   IFR   Intensive IFR   Very Intensive IFR
Visi :
Ceiling :
>= 8 km
>= 3000ft
5 to 8 km
1000 to 3000 ft
1500m to 5 km
500 to 1000 ft
800 to 1500m
200 to 500 ft
< 800m
< 200 ft
Symbols :   Thunderstorms  Fog  Heavy snow  Heavy precipitations  Wind > 20 kt






- Airport Elevation : 5548 ft


KRIL - Garfield County Regional

CURRENT METAR :
  • 151753Z AUTO 00000KT 10SM CLR 07/M07 A3030 RMK AO2 SLP260 T00671067 10072 21056 58010

EXPIRED METARs :
  • 151653Z AUTO 00000KT 10SM CLR 04/M07 A3032 RMK AO2 SLP275 T00391072
  • 151553Z AUTO 00000KT 10SM CLR 01/M08 A3033 RMK AO2 SLP283 T00061078
  • 151453Z AUTO 00000KT 10SM CLR M03/M08 A3033 RMK AO2 SLP286 T10281083 53003

TAF KRIL
Valid from the 15 at 18:00 until the 16 at 18:00 UTC


151743Z 1518/1618 00000KT P6SM FEW150 SCT200
FM152000 VRB03KT P6SM SCT120 BKN180
FM152100 27005KT P6SM SCT120 BKN200
FM160200 VRB03KT P6SM FEW120 SCT250
FM161100 00000KT P6SM SCT120 BKN180
FM161400 00000KT P6SM FEW120 SCT250



MET'MAP, your aeronautical weather chart ! - Copyright ORBIFLY December 2007 - Disclaimer

ORBIFLY MET'MAP TEAM :

Programming & Development : Alexandra Zaïnal
Concept & Development : Baudouin d'Aumeries
Co-Development & Prog : Marc-Olivier Méhu
Technical & hardware support : Manuel Goepfert

Contact : metmap@orbifly.com




SOURCES & CREDITS :

   NOAA       Earth
Advisory